Rockfall, CT

4:48 PM EST on January 27, 2015 (GMT -0500)
APRSWXNET Middlefield CT US | Change Station
CLOSE
Current Station
Personal Weather Station
Location: Rockfall, CT
Elevation: 213 ft
Nearby Weather Stations
Active Advisory: Winter Storm Warning Active Notice: Public Information Statement

Elev 213 ft 41.52 °N, 72.68 °W | Updated 34 minutes ago

Overcast
Overcast
20 °F
Feels Like 11 °F
N
7
Wind Variable Wind from WNW
Gusts 14.0 mph

Today
High -- | Low -- °F
--% Chance of Precip.
Yesterday
High -- | Low -- °F
Precip. -- in
7:07 AM 5:00 PM
First Quarter, 58% visible
Pressure 29.62 in
Visibility 9.0 miles
Clouds Few 4800 ft
Mostly Cloudy 7000 ft
Overcast 9000 ft
Windchill 11 °F
Dew Point 9 °F
Humidity 62%
Rainfall 0.01 in
Snow Depth Not available.
UV 0 out of 12
Pollen .10 out of 12
Air Quality Not available.
Flu Activity Not available.
METAR KMMK 272053Z AUTO 31016G26KT 9SM FEW048 BKN070 OVC090 M07/M14 A2961 RMK AO2 PK WND 32027/2006 SLP029 T10671139 53007 TSNO $

More Conditions Fewer Conditions

Pressure 29.62 in
Visibility 9.0 miles
Clouds Few 4800 ft
Mostly Cloudy 7000 ft
Overcast 9000 ft
Windchill 11 °F
Dew Point 9 °F
Humidity 62%
Rainfall 0.01 in
Snow Depth Not available.
UV 0 out of 12
Pollen .10 out of 12
Air Quality Not available.
Flu Activity Not available.
METAR KMMK 272053Z AUTO 31016G26KT 9SM FEW048 BKN070 OVC090 M07/M14 A2961 RMK AO2 PK WND 32027/2006 SLP029 T10671139 53007 TSNO $

More Conditions Fewer Conditions

10-Day Weather Forecast

Almanac

Astronomy

Jan. 27, 2015 Rise Set
Actual Time
Civil Twilight
Nautical Twilight
Astronomical Twilight
Moon
Length of Visible Light
Length of Day
Tomorrow will be .
, % of the Moon is Illuminated

Today's Extremes

State Highs State Lows

Community

WunderPhotos

Upload Photos

1,790,920 photos uploaded!

WunderBlogs® & News

Nearby

Air Quality

  Air Quality AQ Index Pollutant
Not available.

Snow Depth

Station Depth Elevation

Earthquake Activity

City Distance Mag. Time & Date
Minimum magnitude displayed is 2.5.

Coastal Water Temperatures

Place Temperature

Nearby Weather Stations